Time;durP1;ratioP1;P1;durP2;ratioP2;P2;SDS_P1;SDS_P2;PMS_P1;PMS_P2;Temp;Humidity;BMP_temperature;BMP_pressure;BME280_temperature;BME280_humidity;BME280_pressure;Samples;Min_cycle;Max_cycle;Signal;HPM_P1;HPM_P2
2022/08/22 00:01:44;;;;;;;1999.90;999.90;;;;;;;18.94;60.00;95248.75;4988706;28;20035;-67
2022/08/22 00:04:25;;;;;;;1999.90;999.90;;;;;;;18.98;60.22;95260.34;4987754;28;20026;-67
2022/08/22 00:07:06;;;;;;;1999.90;999.90;;;;;;;18.88;59.86;95250.13;4989285;28;20038;-67
2022/08/22 00:09:46;;;;;;;1999.90;999.90;;;;;;;18.96;59.88;95259.94;4987847;28;20037;-67
2022/08/22 00:12:12;;;;;;;1999.90;999.90;;;;;;;18.90;60.24;95267.53;4989484;28;20031;-67
2022/08/22 00:15:11;;;;;;;1999.90;999.90;;;;;;;18.77;60.23;95257.22;4987476;28;20034;-67
2022/08/22 00:17:52;;;;;;;1999.90;999.90;;;;;;;18.75;60.24;95246.81;4981158;28;20050;-67
2022/08/22 00:20:26;;;;;;;1999.90;999.90;;;;;;;18.78;60.17;95245.31;4989550;28;20360;-68
2022/08/22 00:23:01;;;;;;;1999.90;999.90;;;;;;;18.85;60.06;95267.03;4989578;28;20121;-67
2022/08/22 00:25:37;;;;;;;1999.90;999.90;;;;;;;18.83;60.63;95269.28;4970904;28;20038;-68
2022/08/22 00:28:33;;;;;;;1999.90;999.90;;;;;;;18.80;60.29;95257.31;4969330;28;20391;-69
2022/08/22 00:31:26;;;;;;;1999.90;999.90;;;;;;;18.86;60.37;95268.59;4973782;28;20519;-68
2022/08/22 00:34:07;;;;;;;1999.90;999.90;;;;;;;18.85;60.30;95267.81;4984377;28;20050;-67
2022/08/22 00:36:45;;;;;;;1999.90;999.90;;;;;;;18.81;60.05;95260.78;4992088;28;20034;-67
2022/08/22 00:39:13;;;;;;;1999.90;999.90;;;;;;;18.77;60.30;95271.47;4991728;28;20497;-67
2022/08/22 00:42:00;;;;;;;1999.90;999.90;;;;;;;18.74;60.28;95266.03;4990649;28;20030;-67
2022/08/22 00:44:56;;;;;;;1999.90;999.90;;;;;;;18.67;60.46;95267.38;4992430;28;20026;-67
2022/08/22 00:47:37;;;;;;;1999.90;999.90;;;;;;;18.64;60.91;95267.34;4991304;28;20041;-67
2022/08/22 00:50:11;;;;;;;1999.90;999.90;;;;;;;18.70;60.76;95269.41;4992554;28;20426;-67
2022/08/22 00:53:27;;;;;;;1999.90;999.90;;;;;;;18.69;60.46;95253.63;4991388;28;20062;-67
2022/08/22 00:56:00;;;;;;;1999.90;999.90;;;;;;;18.64;60.75;95246.56;4914021;29;20102;-67
2022/08/22 00:58:44;;;;;;;1999.90;999.90;;;;;;;18.78;60.31;95262.25;4972719;28;20459;-68
2022/08/22 01:01:12;;;;;;;1999.90;999.90;;;;;;;18.79;60.31;95263.06;4992176;28;20487;-67
2022/08/22 01:03:45;;;;;;;1999.90;999.90;;;;;;;18.74;60.04;95253.34;4989040;28;20038;-68
2022/08/22 01:06:16;;;;;;;1999.90;999.90;;;;;;;18.77;59.97;95265.31;4993154;28;20026;-67
2022/08/22 01:09:07;;;;;;;1999.90;999.90;;;;;;;18.45;60.14;95220.34;4990577;28;20026;-68
2022/08/22 01:11:47;;;;;;;1999.90;999.90;;;;;;;18.74;60.39;95268.72;4990439;28;20431;-67
2022/08/22 01:14:48;;;;;;;1999.90;999.90;;;;;;;18.66;60.41;95254.28;4991821;28;20390;-67
2022/08/22 01:17:48;;;;;;;1999.90;999.90;;;;;;;18.76;60.18;95266.44;4989737;28;20038;-67
2022/08/22 01:20:39;;;;;;;1999.90;999.90;;;;;;;18.57;60.15;95242.91;4989048;28;20038;-67
2022/08/22 01:23:43;;;;;;;1999.90;999.90;;;;;;;18.75;60.11;95273.75;4992334;28;20088;-67
2022/08/22 01:26:39;;;;;;;1999.90;999.90;;;;;;;18.67;60.03;95272.00;4992375;28;20037;-69
2022/08/22 01:29:23;;;;;;;1999.90;999.90;;;;;;;18.62;60.30;95261.50;4991339;28;20073;-67
2022/08/22 01:32:06;;;;;;;1999.90;999.90;;;;;;;18.60;60.88;95255.69;4991250;28;20041;-68
2022/08/22 01:35:09;;;;;;;1999.90;999.90;;;;;;;18.53;60.69;95264.41;4991713;28;20038;-67
2022/08/22 01:38:03;;;;;;;1999.90;999.90;;;;;;;18.48;60.77;95263.88;4992665;28;20158;-68
2022/08/22 01:41:06;;;;;;;1999.90;999.90;;;;;;;18.45;61.20;95259.97;4989944;28;20042;-67
2022/08/22 01:43:56;;;;;;;1999.90;999.90;;;;;;;18.42;61.85;95255.28;4991953;28;20026;-67
2022/08/22 01:46:27;;;;;;;1999.90;999.90;;;;;;;18.40;61.96;95241.41;4982818;28;20026;-67
2022/08/22 01:49:04;;;;;;;1999.90;999.90;;;;;;;18.41;61.96;95249.13;4988635;28;20036;-68
2022/08/22 01:51:41;;;;;;;1999.90;999.90;;;;;;;18.34;61.93;95242.81;4991546;28;20641;-67
2022/08/22 01:54:20;;;;;;;1999.90;999.90;;;;;;;18.48;61.76;95267.38;4991069;28;20050;-68
2022/08/22 01:56:46;;;;;;;1999.90;999.90;;;;;;;18.31;61.69;95233.50;4991378;28;20543;-67
2022/08/22 01:59:23;;;;;;;1999.90;999.90;;;;;;;18.42;61.87;95245.28;4991235;28;20026;-67
2022/08/22 02:01:48;;;;;;;1999.90;999.90;;;;;;;18.48;61.85;95245.81;4990277;28;20032;-67
2022/08/22 02:04:38;;;;;;;1999.90;999.90;;;;;;;18.43;62.08;95249.56;4989953;28;20113;-67
2022/08/22 02:07:07;;;;;;;1999.90;999.90;;;;;;;18.44;61.94;95258.44;4992042;28;20030;-67
2022/08/22 02:09:47;;;;;;;1999.90;999.90;;;;;;;18.41;62.12;95249.13;4989397;28;20097;-67
2022/08/22 02:12:24;;;;;;;1999.90;999.90;;;;;;;18.32;62.43;95250.44;4991585;28;20034;-67
2022/08/22 02:15:08;;;;;;;1999.90;999.90;;;;;;;18.34;62.93;95258.97;4991023;28;20030;-67
2022/08/22 02:17:49;;;;;;;1999.90;999.90;;;;;;;18.33;62.59;95263.56;4990705;28;20419;-67
2022/08/22 02:20:31;;;;;;;1999.90;999.90;;;;;;;18.35;62.73;95255.13;4991015;28;20505;-67
2022/08/22 02:23:00;;;;;;;1999.90;999.90;;;;;;;18.22;62.86;95245.59;4991372;28;20026;-69
2022/08/22 02:25:33;;;;;;;1999.90;999.90;;;;;;;18.20;62.90;95243.25;4989828;28;20365;-67
2022/08/22 02:28:09;;;;;;;1999.90;999.90;;;;;;;18.33;63.19;95262.78;4991591;28;20157;-67
2022/08/22 02:30:49;;;;;;;1999.90;999.90;;;;;;;18.29;63.07;95245.78;4989330;28;20033;-67
2022/08/22 02:33:27;;;;;;;1999.90;999.90;;;;;;;18.28;63.43;95244.22;4991089;28;20065;-67
2022/08/22 02:36:03;;;;;;;1999.90;999.90;;;;;;;18.18;63.44;95229.38;4990228;28;20081;-67
2022/08/22 02:38:29;;;;;;;1999.90;999.90;;;;;;;18.33;63.19;95254.72;4991472;28;20076;-74
2022/08/22 02:41:21;;;;;;;1999.90;999.90;;;;;;;18.19;63.20;95230.94;4988221;28;20031;-72
2022/08/22 02:43:52;;;;;;;1999.90;999.90;;;;;;;17.92;63.41;95197.63;4989703;28;20026;-72
2022/08/22 02:46:52;;;;;;;1999.90;999.90;;;;;;;17.84;65.16;95257.78;4988144;28;20490;-74
2022/08/22 02:49:22;;;;;;;1999.90;999.90;;;;;;;17.78;65.74;95270.72;4990690;28;20057;-74
2022/08/22 02:52:14;;;;;;;1999.90;999.90;;;;;;;17.23;66.88;95242.75;4991482;28;20034;-74
2022/08/22 02:54:42;;;;;;;1999.90;999.90;;;;;;;17.84;65.80;95268.53;4990299;28;20506;-74
2022/08/22 02:57:35;;;;;;;1999.90;999.90;;;;;;;16.91;68.64;95241.09;4990102;28;20513;-73
2022/08/22 03:00:14;;;;;;;1999.90;999.90;;;;;;;17.21;67.95;95274.56;4989682;28;20034;-73
2022/08/22 03:03:08;;;;;;;1999.90;999.90;;;;;;;17.17;67.74;95241.44;4979017;28;20030;-76
2022/08/22 03:05:36;;;;;;;1999.90;999.90;;;;;;;17.58;66.64;95279.78;4990310;28;20095;-75
2022/08/22 03:08:12;;;;;;;1999.90;999.90;;;;;;;17.23;66.78;95237.38;4990061;28;20372;-75
2022/08/22 03:10:44;;;;;;;1999.90;999.90;;;;;;;17.36;66.53;95238.09;4988744;28;20026;-75
2022/08/22 03:13:15;;;;;;;1999.90;999.90;;;;;;;17.71;66.06;95269.72;4989805;28;20034;-75
2022/08/22 03:16:09;;;;;;;1999.90;999.90;;;;;;;17.61;65.71;95252.19;4982213;28;20673;-75
2022/08/22 03:19:01;;;;;;;1999.90;999.90;;;;;;;17.78;65.58;95278.00;4989342;28;20406;-75
2022/08/22 03:22:04;;;;;;;1999.90;999.90;;;;;;;17.74;65.48;95279.81;4988647;28;20034;-75
2022/08/22 03:24:29;;;;;;;;;;;;;;;17.70;65.40;95271.63;4990534;28;20049;-75
2022/08/22 03:27:16;;;;;;;1999.90;999.90;;;;;;;17.63;65.45;95266.06;4971821;28;20414;-76
2022/08/22 03:30:21;;;;;;;1999.90;999.90;;;;;;;17.70;65.70;95263.53;4973301;28;20510;-75
2022/08/22 03:32:49;;;;;;;1999.90;999.90;;;;;;;17.70;65.99;95260.84;4968096;28;20607;-74
2022/08/22 03:35:37;;;;;;;1999.90;999.90;;;;;;;17.49;65.86;95236.88;4975617;28;20044;-76
2022/08/22 03:38:32;;;;;;;1999.90;999.90;;;;;;;17.69;65.84;95267.38;4991080;28;20026;-74
2022/08/22 03:41:35;;;;;;;1999.90;999.90;;;;;;;17.64;65.72;95260.34;4967354;28;20045;-75
2022/08/22 03:44:24;;;;;;;1999.90;999.90;;;;;;;17.68;65.95;95271.19;4987534;28;20125;-75
2022/08/22 03:47:11;;;;;;;1999.90;999.90;;;;;;;17.42;65.72;95239.41;4988549;28;20034;-76
2022/08/22 03:49:56;;;;;;;1999.90;999.90;;;;;;;17.49;65.98;95252.25;4990790;28;20030;-76
2022/08/22 03:52:33;;;;;;;1999.90;999.90;;;;;;;17.61;65.37;95284.47;4988842;28;20850;-76
2022/08/22 03:54:58;;;;;;;1999.90;999.90;;;;;;;17.59;65.50;95284.78;4987981;28;20042;-75
2022/08/22 03:57:23;;;;;;;1999.90;999.90;;;;;;;17.53;65.51;95286.19;4990647;28;20022;-75
2022/08/22 04:00:10;;;;;;;1999.90;999.90;;;;;;;17.52;66.01;95290.00;4988159;28;20030;-75
2022/08/22 04:02:39;;;;;;;1999.90;999.90;;;;;;;17.54;66.12;95298.50;5005297;28;20395;-76
2022/08/22 04:05:35;;;;;;;1999.90;999.90;;;;;;;17.53;66.17;95291.56;4988292;28;20348;-76
2022/08/22 04:08:06;;;;;;;1999.90;999.90;;;;;;;17.54;66.13;95298.50;4989400;28;20026;-76
2022/08/22 04:10:41;;;;;;;1999.90;999.90;;;;;;;17.59;65.91;95295.56;4988608;28;20034;-76
2022/08/22 04:13:39;;;;;;;1999.90;999.90;;;;;;;17.64;65.75;95292.63;4989328;28;20117;-76
2022/08/22 04:16:10;;;;;;;1999.90;999.90;;;;;;;17.67;65.40;95300.00;4965114;28;20034;-76
2022/08/22 04:19:01;;;;;;;1999.90;999.90;;;;;;;17.58;65.80;95282.47;4994706;28;20026;-75
2022/08/22 04:22:07;;;;;;;1999.90;999.90;;;;;;;17.67;65.73;95302.69;4993478;28;20109;-75
2022/08/22 04:24:39;;;;;;;1999.90;999.90;;;;;;;17.48;65.73;95270.28;4993315;28;20100;-75
2022/08/22 04:27:13;;;;;;;;;;;;;;;17.66;65.87;95294.97;4978215;28;20403;-76
2022/08/22 04:29:47;;;;;;;1999.90;999.90;;;;;;;17.63;65.73;95290.28;4974592;28;19968;-77
2022/08/22 04:32:19;;;;;;;1999.90;999.90;;;;;;;17.62;65.82;95292.19;4989405;28;20026;-76
2022/08/22 04:34:53;;;;;;;1999.90;999.90;;;;;;;17.63;66.06;95288.38;4992663;28;20509;-76
2022/08/22 04:37:39;;;;;;;1999.90;999.90;;;;;;;17.63;65.95;95291.06;4993147;28;20121;-77
2022/08/22 04:40:28;;;;;;;1999.90;999.90;;;;;;;17.64;65.90;95289.16;4992005;28;20027;-75
2022/08/22 04:43:07;;;;;;;1999.90;999.90;;;;;;;17.62;65.99;95275.28;4992689;28;20121;-76
2022/08/22 04:45:42;;;;;;;1999.90;999.90;;;;;;;17.60;65.82;95269.44;4989293;28;20037;-77
2022/08/22 04:48:52;;;;;;;1999.90;999.90;;;;;;;17.70;66.08;95274.31;4994192;28;20022;-75
2022/08/22 04:51:24;;;;;;;1999.90;999.90;;;;;;;17.57;66.15;95249.41;4989903;28;20041;-75
2022/08/22 04:54:05;;;;;;;1999.90;999.90;;;;;;;17.78;65.89;95264.56;4993283;28;20415;-76
2022/08/22 04:56:36;;;;;;;1999.90;999.90;;;;;;;18.00;66.00;95282.78;4988119;28;20506;-76
2022/08/22 04:59:12;;;;;;;1999.90;999.90;;;;;;;17.96;65.76;95271.13;4993551;28;20085;-75
2022/08/22 05:01:52;;;;;;;1999.90;999.90;;;;;;;18.22;65.40;95283.28;4991092;28;20042;-76
2022/08/22 05:04:36;;;;;;;1999.90;999.90;;;;;;;18.21;65.28;95277.13;4993450;28;20441;-75
2022/08/22 05:07:21;;;;;;;1999.90;999.90;;;;;;;18.44;64.65;95299.59;4992758;28;20040;-76
2022/08/22 05:09:55;;;;;;;1999.90;999.90;;;;;;;18.55;64.67;95296.38;4993234;28;20117;-76
2022/08/22 05:12:29;;;;;;;1999.90;999.90;;;;;;;18.58;64.23;95285.69;4991528;28;20038;-77
2022/08/22 05:15:06;;;;;;;1999.90;999.90;;;;;;;18.58;64.38;95290.25;4991270;28;20053;-77
2022/08/22 05:17:32;;;;;;;1999.90;999.90;;;;;;;17.73;66.81;95281.72;5007852;28;20430;-76
2022/08/22 05:20:05;;;;;;;1999.90;999.90;;;;;;;17.38;68.42;95295.00;4992509;28;20530;-76
2022/08/22 05:22:38;;;;;;;1999.90;999.90;;;;;;;17.99;67.16;95308.13;4972581;28;20035;-75
2022/08/22 05:25:10;;;;;;;1999.90;999.90;;;;;;;18.19;65.92;95288.25;4974543;28;20030;-76
2022/08/22 05:27:40;;;;;;;;;;;;;;;18.68;65.08;95312.13;4994024;28;20030;-77
2022/08/22 05:30:15;;;;;;;1999.90;999.90;;;;;;;18.90;64.52;95315.28;4991821;28;19951;-72
2022/08/22 05:33:02;;;;;;;1999.90;999.90;;;;;;;18.62;64.65;95310.78;4989829;28;20053;-73
2022/08/22 05:35:35;;;;;;;1999.90;999.90;;;;;;;18.58;64.78;95301.03;4988013;28;20023;-74
2022/08/22 05:38:04;;;;;;;1999.90;999.90;;;;;;;18.94;64.50;95308.81;5016221;28;20026;-76
2022/08/22 05:40:32;;;;;;;1999.90;999.90;;;;;;;19.12;63.98;95317.28;4990016;28;20034;-72
2022/08/22 05:42:58;;;;;;;1999.90;999.90;;;;;;;18.86;64.71;95301.72;4992757;28;20023;-77
2022/08/22 05:45:26;;;;;;;1999.90;999.90;;;;;;;19.34;63.93;95320.38;4989640;28;20034;-72
2022/08/22 05:48:16;;;;;;;1999.90;999.90;;;;;;;19.63;63.35;95321.75;4991723;28;20034;-73
2022/08/22 05:50:48;;;;;;;1999.90;999.90;;;;;;;19.84;62.91;95319.44;4990729;28;20037;-75
2022/08/22 05:53:37;;;;;;;1999.90;999.90;;;;;;;20.00;62.61;95314.72;4990636;28;20118;-74
2022/08/22 05:56:20;;;;;;;1999.90;999.90;;;;;;;20.14;61.89;95314.19;4990854;28;20026;-75
2022/08/22 05:58:53;;;;;;;1999.90;999.90;;;;;;;20.36;61.88;95320.69;4991326;28;20027;-75
2022/08/22 06:01:50;;;;;;;1999.90;999.90;;;;;;;20.57;61.32;95324.91;4988702;28;20022;-75
2022/08/22 06:04:34;;;;;;;1999.90;999.90;;;;;;;20.70;60.82;95318.94;5006301;28;20022;-72
2022/08/22 06:07:02;;;;;;;1999.90;999.90;;;;;;;20.80;60.28;95311.34;4988142;28;20100;-74
2022/08/22 06:09:59;;;;;;;1999.90;999.90;;;;;;;20.83;59.57;95321.44;4988954;28;20458;-74
2022/08/22 06:12:43;;;;;;;1999.90;999.90;;;;;;;20.81;59.43;95326.44;5004170;28;20038;-75
2022/08/22 06:15:45;;;;;;;1999.90;999.90;;;;;;;20.39;60.50;95330.03;4976843;28;20027;-75
2022/08/22 06:18:15;;;;;;;1999.90;999.90;;;;;;;20.53;59.74;95324.09;4972926;28;20019;-74
2022/08/22 06:20:51;;;;;;;1999.90;999.90;;;;;;;20.86;59.40;95315.31;4981531;28;20404;-75
2022/08/22 06:23:28;;;;;;;1999.90;999.90;;;;;;;21.07;58.95;95326.41;4990809;28;20089;-75
2022/08/22 06:25:59;;;;;;;1999.90;999.90;;;;;;;20.67;59.09;95324.28;4989304;28;20022;-75
2022/08/22 06:28:33;;;;;;;1999.90;999.90;;;;;;;20.31;60.18;95329.13;4992067;28;20018;-75
2022/08/22 06:31:02;;;;;;;1999.90;999.90;;;;;;;20.53;59.48;95318.69;4986649;28;20783;-74
2022/08/22 06:33:31;;;;;;;1999.90;999.90;;;;;;;20.81;58.92;95331.84;4979072;28;20396;-74
2022/08/22 06:39:10;;;;;;;1999.90;999.90;;;;;;;21.33;57.53;95331.00;4992145;28;20564;-76
2022/08/22 06:41:41;;;;;;;1999.90;999.90;;;;;;;21.44;56.65;95326.50;4989539;28;20038;-75
2022/08/22 06:44:07;;;;;;;1999.90;999.90;;;;;;;21.84;56.04;95329.66;4991562;28;20069;-75
2022/08/22 06:46:36;;;;;;;1999.90;999.90;;;;;;;21.37;56.28;95328.34;4990076;28;20062;-75
2022/08/22 06:49:06;;;;;;;1999.90;999.90;;;;;;;21.55;55.52;95323.94;4990132;28;20022;-73
2022/08/22 06:51:34;;;;;;;1999.90;999.90;;;;;;;21.71;55.99;95332.63;4989129;28;20489;-74
2022/08/22 06:54:03;;;;;;;1999.90;999.90;;;;;;;22.02;54.97;95333.31;4991274;28;20081;-74
2022/08/22 06:56:37;;;;;;;1999.90;999.90;;;;;;;22.37;54.34;95340.22;4989309;28;20030;-74
2022/08/22 06:59:09;;;;;;;1999.90;999.90;;;;;;;22.41;53.92;95332.91;4991529;28;20077;-75
2022/08/22 07:01:37;;;;;;;;;;;;;;;22.61;53.80;95344.28;4990706;28;20034;-75
2022/08/22 07:04:08;;;;;;;1999.90;999.90;;;;;;;22.84;53.18;95329.38;4990857;28;19913;-74
2022/08/22 07:06:40;;;;;;;1999.90;999.90;;;;;;;22.96;52.38;95330.22;4989674;28;20437;-75
2022/08/22 07:09:15;;;;;;;1999.90;999.90;;;;;;;23.38;51.67;95345.16;4991123;28;20019;-75
2022/08/22 07:11:42;;;;;;;1999.90;999.90;;;;;;;23.60;51.17;95335.97;4986355;28;21105;-72
2022/08/22 07:14:10;;;;;;;1999.90;999.90;;;;;;;23.73;49.91;95336.41;4982592;28;20038;-72
2022/08/22 07:16:56;;;;;;;1999.90;999.90;;;;;;;23.71;49.63;95333.31;4987616;28;20030;-72
2022/08/22 07:19:29;;;;;;;1999.90;999.90;;;;;;;24.02;50.04;95332.63;4990569;28;20045;-73
2022/08/22 07:21:56;;;;;;;1999.90;999.90;;;;;;;24.17;49.00;95338.06;4991071;28;20023;-73
2022/08/22 07:24:26;;;;;;;1999.90;999.90;;;;;;;24.59;48.01;95329.19;4987635;28;20046;-73
2022/08/22 07:27:15;;;;;;;1999.90;999.90;;;;;;;24.60;47.93;95341.59;4988903;28;20045;-72
2022/08/22 07:29:57;;;;;;;1999.90;999.90;;;;;;;25.05;47.49;95339.22;4987257;28;20453;-75
2022/08/22 07:32:30;;;;;;;1999.90;999.90;;;;;;;25.34;46.23;95320.91;4983878;28;20100;-73
2022/08/22 07:35:07;;;;;;;1999.90;999.90;;;;;;;25.78;45.58;95333.94;4989977;28;20045;-72
2022/08/22 07:37:38;;;;;;;1999.90;999.90;;;;;;;26.08;45.05;95335.34;4988841;28;20508;-73
2022/08/22 07:40:30;;;;;;;1999.90;999.90;;;;;;;26.11;45.20;95329.88;4989335;28;20037;-72
2022/08/22 07:43:05;;;;;;;1999.90;999.90;;;;;;;26.16;44.96;95321.28;4990091;28;20482;-73
2022/08/22 07:45:49;;;;;;;1999.90;999.90;;;;;;;26.34;44.86;95328.53;4988173;28;20121;-73
2022/08/22 07:48:20;;;;;;;1999.90;999.90;;;;;;;26.35;44.40;95324.63;4989636;28;20038;-72
2022/08/22 07:51:05;;;;;;;1999.90;999.90;;;;;;;26.18;45.04;95323.59;4995493;28;20469;-72
2022/08/22 07:53:41;;;;;;;1999.90;999.90;;;;;;;25.97;45.61;95321.00;4989931;28;20592;-71
2022/08/22 07:56:15;;;;;;;1999.90;999.90;;;;;;;25.89;45.76;95328.44;4990186;28;20861;-72
2022/08/22 07:58:43;;;;;;;1999.90;999.90;;;;;;;25.82;45.48;95323.81;4988962;28;20372;-74
2022/08/22 08:01:14;;;;;;;1999.90;999.90;;;;;;;25.22;46.21;95319.38;4990279;28;20034;-73
2022/08/22 08:03:40;;;;;;;1999.90;999.90;;;;;;;25.18;46.70;95310.44;4989770;28;20033;-73
2022/08/22 08:06:07;;;;;;;1999.90;999.90;;;;;;;24.37;48.39;95307.44;4987494;28;20037;-73
2022/08/22 08:08:39;;;;;;;1999.90;999.90;;;;;;;24.35;48.64;95325.25;4990329;28;20054;-73
2022/08/22 08:11:09;;;;;;;1999.90;999.90;;;;;;;24.13;49.65;95322.53;4988252;28;20054;-74
2022/08/22 08:13:39;;;;;;;1999.90;999.90;;;;;;;24.74;47.88;95321.78;5004152;28;20088;-72
2022/08/22 08:16:09;;;;;;;1999.90;999.90;;;;;;;25.00;47.50;95317.84;4989073;28;20427;-74
2022/08/22 08:18:38;;;;;;;1999.90;999.90;;;;;;;24.96;45.27;95312.41;4990374;28;20033;-72
2022/08/22 08:21:07;;;;;;;1999.90;999.90;;;;;;;24.75;40.87;95313.22;4989441;28;20034;-69
2022/08/22 08:23:39;;;;;;;1999.90;999.90;;;;;;;24.85;42.18;95323.31;4988568;28;20097;-73
2022/08/22 08:26:11;;;;;;;1999.90;999.90;;;;;;;25.15;42.71;95314.72;4987934;28;20491;-73
2022/08/22 08:28:43;;;;;;;1999.90;999.90;;;;;;;25.24;41.73;95317.03;4990181;28;20464;-72
2022/08/22 08:31:31;;;;;;;1999.90;999.90;;;;;;;25.05;38.55;95306.56;4990170;28;20042;-70
2022/08/22 08:34:02;;;;;;;1999.90;999.90;;;;;;;25.15;39.68;95313.97;4985578;28;20034;-73
2022/08/22 08:36:49;;;;;;;1999.90;999.90;;;;;;;25.28;40.25;95319.72;4987626;28;20027;-73
2022/08/22 08:39:28;;;;;;;1999.90;999.90;;;;;;;25.12;40.90;95320.19;4986749;28;20030;-74
2022/08/22 08:42:18;;;;;;;1999.90;999.90;;;;;;;25.38;41.98;95316.19;4981397;28;20034;-74
2022/08/22 08:44:55;;;;;;;1999.90;999.90;;;;;;;25.28;42.08;95312.34;4984127;28;20031;-75
2022/08/22 08:47:27;;;;;;;1999.90;999.90;;;;;;;24.97;40.83;95305.03;4985908;28;20121;-73
2022/08/22 08:50:06;;;;;;;1999.90;999.90;;;;;;;25.29;40.41;95316.63;4996484;28;20034;-74
2022/08/22 08:52:53;;;;;;;1999.90;999.90;;;;;;;25.56;40.28;95310.69;4988387;28;20034;-73
2022/08/22 08:55:37;;;;;;;1999.90;999.90;;;;;;;25.40;39.92;95303.75;4988804;28;20058;-73
2022/08/22 08:58:39;;;;;;;1999.90;999.90;;;;;;;25.49;39.60;95302.53;4974692;28;20039;-73
2022/08/22 09:01:24;;;;;;;1999.90;999.90;;;;;;;25.25;39.71;95310.41;5000081;28;20435;-73
2022/08/22 09:04:08;;;;;;;1999.90;999.90;;;;;;;24.92;40.66;95305.41;5012821;28;20022;-74
2022/08/22 09:07:00;;;;;;;1999.90;999.90;;;;;;;24.95;39.85;95307.38;5001386;28;20380;-73
2022/08/22 09:10:03;;;;;;;1999.90;999.90;;;;;;;25.34;39.45;95308.06;4991964;28;20030;-73
2022/08/22 09:12:38;;;;;;;1999.90;999.90;;;;;;;24.73;40.58;95310.13;4990917;28;20058;-74
2022/08/22 09:15:06;;;;;;;1999.90;999.90;;;;;;;24.51;40.90;95303.91;4990804;28;20368;-73
2022/08/22 09:17:46;;;;;;;1999.90;999.90;;;;;;;24.29;42.21;95307.78;4991880;28;20045;-73
2022/08/22 09:20:46;;;;;;;1999.90;999.90;;;;;;;24.24;41.45;95300.78;4991572;28;20069;-73
2022/08/22 09:23:33;;;;;;;1999.90;999.90;;;;;;;24.78;39.70;95309.75;4991989;28;20085;-73
2022/08/22 09:26:11;;;;;;;1999.90;999.90;;;;;;;25.19;39.53;95303.06;4991206;28;20085;-73
2022/08/22 09:28:42;;;;;;;1999.90;999.90;;;;;;;24.51;38.38;95305.88;4992975;28;20357;-73
2022/08/22 09:31:28;;;;;;;1999.90;999.90;;;;;;;24.39;39.37;95312.47;4993066;28;20388;-73
2022/08/22 09:34:20;;;;;;;1999.90;999.90;;;;;;;24.47;38.81;95307.84;4992453;28;20598;-75
2022/08/22 09:37:16;;;;;;;1999.90;999.90;;;;;;;24.51;38.78;95303.16;4990916;28;20046;-74
2022/08/22 09:39:45;;;;;;;1999.90;999.90;;;;;;;24.99;36.54;95299.97;4991502;28;20026;-74
2022/08/22 09:42:20;;;;;;;1999.90;999.90;;;;;;;25.28;36.86;95300.69;4990723;28;20041;-74
2022/08/22 09:44:48;;;;;;;1999.90;999.90;;;;;;;25.13;36.59;95299.94;4992113;28;20027;-74
2022/08/22 09:47:29;;;;;;;1999.90;999.90;;;;;;;25.92;35.97;95295.72;4992488;28;20439;-74
2022/08/22 09:50:02;;;;;;;1999.90;999.90;;;;;;;25.47;36.46;95302.16;4991046;28;20026;-74
2022/08/22 09:52:42;;;;;;;1999.90;999.90;;;;;;;25.66;34.97;95297.00;4990693;28;20654;-75
2022/08/22 09:55:16;;;;;;;1999.90;999.90;;;;;;;25.36;35.95;95307.66;4991452;28;20101;-75
2022/08/22 09:57:55;;;;;;;1999.90;999.90;;;;;;;24.51;36.38;95301.19;4990368;28;20360;-75
2022/08/22 10:00:30;;;;;;;1999.90;999.90;;;;;;;24.84;34.83;95300.00;4990508;28;20030;-73
2022/08/22 10:03:05;;;;;;;1999.90;999.90;;;;;;;24.27;34.60;95316.34;4980093;28;20483;-73
2022/08/22 10:05:45;;;;;;;1999.90;999.90;;;;;;;24.80;34.89;95295.72;4991557;28;20038;-73
2022/08/22 10:08:42;;;;;;;1999.90;999.90;;;;;;;25.64;33.90;95295.84;4991129;28;20058;-74
2022/08/22 10:11:28;;;;;;;1999.90;999.90;;;;;;;25.78;33.64;95289.59;4990303;28;20034;-76
2022/08/22 10:14:07;;;;;;;1999.90;999.90;;;;;;;25.09;33.28;95299.97;4991948;28;20022;-73
2022/08/22 10:16:41;;;;;;;1999.90;999.90;;;;;;;24.61;34.27;95314.00;4992427;28;20069;-71
2022/08/22 10:19:27;;;;;;;1999.90;999.90;;;;;;;24.97;33.55;95288.69;4996147;28;20022;-72
2022/08/22 10:22:14;;;;;;;1999.90;999.90;;;;;;;25.37;33.30;95301.81;5008575;28;20022;-75
2022/08/22 10:24:46;;;;;;;1999.90;999.90;;;;;;;25.54;33.18;95299.41;4977396;28;20030;-74
2022/08/22 10:27:17;;;;;;;1999.90;999.90;;;;;;;26.11;31.87;95282.75;4987752;28;20027;-74
2022/08/22 10:30:08;;;;;;;1999.90;999.90;;;;;;;26.59;32.40;95303.81;4976528;28;20357;-73
2022/08/22 10:32:45;;;;;;;1999.90;999.90;;;;;;;26.04;33.15;95278.13;4972015;28;20030;-73
2022/08/22 10:35:51;;;;;;;1999.90;999.90;;;;;;;25.90;33.60;95300.03;4978108;28;20037;-74
2022/08/22 10:38:26;;;;;;;1999.90;999.90;;;;;;;26.34;32.48;95299.31;4980480;28;20482;-75
2022/08/22 10:41:02;;;;;;;1999.90;999.90;;;;;;;25.18;32.72;95274.28;4989858;28;20049;-74
2022/08/22 10:43:34;;;;;;;1999.90;999.90;;;;;;;25.35;33.03;95296.00;4990503;28;20364;-75
2022/08/22 10:46:11;;;;;;;1999.90;999.90;;;;;;;25.09;33.88;95291.81;4989480;28;20085;-74
2022/08/22 10:48:58;;;;;;;1999.90;999.90;;;;;;;25.19;34.23;95303.06;4989687;28;20041;-73
2022/08/22 10:51:45;;;;;;;1999.90;999.90;;;;;;;25.89;33.00;95287.56;4989180;28;20033;-75
2022/08/22 10:54:27;;;;;;;1999.90;999.90;;;;;;;25.13;34.49;95297.22;4988917;28;20129;-75
2022/08/22 10:57:23;;;;;;;1999.90;999.90;;;;;;;25.17;33.35;95297.22;5002521;28;20088;-76
2022/08/22 11:00:11;;;;;;;1999.90;999.90;;;;;;;25.31;34.03;95299.91;5010023;28;20049;-77
2022/08/22 11:02:47;;;;;;;1999.90;999.90;;;;;;;24.89;34.03;95301.56;5011080;28;20036;-78
2022/08/22 11:05:22;;;;;;;1999.90;999.90;;;;;;;24.56;34.12;95291.88;5004548;28;20087;-76
2022/08/22 11:07:54;;;;;;;1999.90;999.90;;;;;;;25.18;33.32;95304.22;4989924;28;20109;-77
2022/08/22 11:10:55;;;;;;;1999.90;999.90;;;;;;;24.95;33.60;95304.66;4991580;28;20433;-76
2022/08/22 11:13:29;;;;;;;1999.90;999.90;;;;;;;26.01;31.37;95300.75;4991207;28;20166;-78
2022/08/22 11:16:01;;;;;;;1999.90;999.90;;;;;;;26.13;31.21;95294.03;4990036;28;20398;-79
2022/08/22 11:18:45;;;;;;;1999.90;999.90;;;;;;;25.58;33.06;95297.44;4990803;28;20442;-75
2022/08/22 11:21:27;;;;;;;1999.90;999.90;;;;;;;25.66;33.56;95290.78;4989468;28;20052;-77
2022/08/22 11:24:08;;;;;;;1999.90;999.90;;;;;;;25.27;33.42;95307.28;4993546;28;20470;-71
2022/08/22 11:26:43;;;;;;;1999.90;999.90;;;;;;;25.25;33.98;95306.94;4997143;28;20088;-75
2022/08/22 11:29:32;;;;;;;1999.90;999.90;;;;;;;25.50;33.99;95298.66;4998425;28;20027;-72
2022/08/22 11:32:13;;;;;;;1999.90;999.90;;;;;;;25.71;34.05;95300.50;4992661;28;20038;-75
2022/08/22 11:34:51;;;;;;;1999.90;999.90;;;;;;;25.06;34.85;95297.22;4991684;28;20518;-75
2022/08/22 11:37:58;;;;;;;1999.90;999.90;;;;;;;25.47;34.58;95294.78;4989457;28;20029;-75
2022/08/22 11:40:33;;;;;;;1999.90;999.90;;;;;;;25.35;33.98;95296.00;4988583;28;20073;-73
2022/08/22 11:43:14;;;;;;;1999.90;999.90;;;;;;;26.18;33.36;95293.59;4991292;28;20053;-77
2022/08/22 11:45:45;;;;;;;1999.90;999.90;;;;;;;25.65;33.70;95289.25;4992062;28;20487;-75
2022/08/22 11:48:35;;;;;;;1999.90;999.90;;;;;;;26.05;33.17;95289.78;4991663;28;20065;-74
2022/08/22 11:51:19;;;;;;;1999.90;999.90;;;;;;;26.39;32.34;95301.63;4989999;28;20037;-75
2022/08/22 11:53:54;;;;;;;1999.90;999.90;;;;;;;26.14;33.27;95288.16;4988335;28;20050;-75